This is the latest recevied weather packets stored in our database for station/object OK1VCF-4. If no packets are shown the sender has not sent any weather packets the latest 10 day(s).
| Time | Temp. | Humidity | Pressure | Rain* | Wind** | Luminosity | Snow |
|---|---|---|---|---|---|---|---|
| 1777595386 | 5.56° C | 67% | 1030.2 hPa | - | - | - | - |
| 1777589982 | 6.67° C | 62% | 1030.4 hPa | - | - | - | - |
| 1777589082 | 6.67° C | 61% | 1030.4 hPa | - | - | - | - |
| 1777586380 | 7.22° C | 62% | 1030.4 hPa | - | - | - | - |
| 1777585480 | 6.67° C | 63% | 1030.5 hPa | - | - | - | - |
| 1777574672 | 11.67° C | 44% | 1030 hPa | - | - | - | - |
| 1777552158 | 13.33° C | 28% | 1031.4 hPa | - | - | - | - |
| 1777456696 | 12.22° C | 34% | 1027 hPa | - | - | - | - |
| 1777455797 | 11.11° C | 34% | 1027.1 hPa | - | - | - | - |
| 1777454894 | 11.11° C | 35% | 1027.1 hPa | - | - | - | - |
| 1777422473 | 5.56° C | 49% | 1025.4 hPa | - | - | - | - |
| 1777420672 | 5.56° C | 46% | 1025.4 hPa | - | - | - | - |
| 1777417069 | 6.67° C | 44% | 1025.2 hPa | - | - | - | - |
| 1777357630 | 8.89° C | 58% | 1022.8 hPa | - | - | - | - |
| 1777344121 | 4.44° C | 73% | 1022.1 hPa | - | - | - | - |
| 1777328812 | 7.78° C | 56% | 1022 hPa | - | - | - | - |
| 1777314402 | 13.33° C | 35% | 1021.4 hPa | - | - | - | - |
| 1777285583 | 15° C | 33% | 1024.4 hPa | - | - | - | - |
| 1777265769 | 3.89° C | 74% | 1025.2 hPa | - | - | - | - |
| 1777264869 | 3.33° C | 74% | 1025.3 hPa | - | - | - | - |
| 1777253162 | 3.89° C | 70% | 1025 hPa | - | - | - | - |
| 1777250461 | 3.33° C | 72% | 1025.2 hPa | - | - | - | - |
| 1777232449 | 10° C | 44% | 1025.2 hPa | - | - | - | - |
| 1777226144 | 11.67° C | 38% | 1024.3 hPa | - | - | - | - |
| 1777220741 | 14.44° C | 30% | 1024.2 hPa | - | - | - | - |
* Rain since midnight (hover to see other rain measurements)
** Current wind speed in m/s (hover to see current wind gust speed)